createdAt,value
2023-05-21T00:00:12.942Z,99675.72
2023-05-21T00:03:16.358Z,99677.97
2023-05-21T00:06:21.018Z,99684.13
2023-05-21T00:09:23.083Z,99673.88
2023-05-21T00:12:24.992Z,99675.28
2023-05-21T00:15:26.772Z,99669.22
2023-05-21T00:18:28.622Z,99671.94
2023-05-21T00:21:31.710Z,99664.66
2023-05-21T00:24:33.589Z,99663.56
2023-05-21T00:27:35.406Z,99669.34
2023-05-21T00:30:37.300Z,99663.56
2023-05-21T00:33:39.131Z,99661.69
2023-05-21T00:36:40.948Z,99652.38
2023-05-21T00:39:43.288Z,99651.81
2023-05-21T00:42:47.946Z,99656.94
2023-05-21T00:45:49.904Z,99650.34
2023-05-21T00:48:52.564Z,99653.69
2023-05-21T00:51:54.945Z,99653.88
2023-05-21T00:54:56.861Z,99655.53
2023-05-21T00:57:58.792Z,99656.94
2023-05-21T01:01:07.067Z,99653.78
2023-05-21T01:04:09.218Z,99652.75
2023-05-21T01:07:11.186Z,99649.59
2023-05-21T01:10:13.292Z,99643.00
2023-05-21T01:13:17.028Z,99640.00
2023-05-21T01:16:18.992Z,99626.06
2023-05-21T01:19:22.278Z,99625.41
2023-05-21T01:22:25.444Z,99621.88
2023-05-21T01:25:27.546Z,99613.69
2023-05-21T01:28:30.047Z,99623.66
2023-05-21T01:32:01.471Z,99629.03
2023-05-21T01:35:17.540Z,99625.41
2023-05-21T01:39:02.110Z,99624.75
2023-05-21T01:42:09.123Z,99624.47
2023-05-21T01:45:12.230Z,99618.16
2023-05-21T01:48:17.433Z,99613.38
2023-05-21T01:51:19.565Z,99604.91
2023-05-21T01:54:22.107Z,99606.84
2023-05-21T01:57:24.030Z,99612.97
2023-05-21T02:00:28.484Z,99614.19
2023-05-21T02:03:31.611Z,99610.53
2023-05-21T02:06:35.878Z,99610.63
2023-05-21T02:09:37.773Z,99610.97
2023-05-21T02:12:39.816Z,99608.25
2023-05-21T02:15:42.390Z,99608.66
2023-05-21T02:18:44.331Z,99613.41
2023-05-21T02:21:46.233Z,99623.88
2023-05-21T02:24:48.027Z,99626.75
2023-05-21T02:27:53.623Z,99626.09
2023-05-21T02:30:56.434Z,99626.09
2023-05-21T02:33:58.378Z,99618.66
2023-05-21T02:37:00.381Z,99621.66
2023-05-21T02:40:05.203Z,99624.00
2023-05-21T02:43:07.198Z,99621.13
2023-05-21T02:46:09.108Z,99627.16
2023-05-21T02:49:12.317Z,99625.97
2023-05-21T02:52:15.326Z,99617.22
2023-05-21T02:55:17.257Z,99609.25
2023-05-21T02:58:19.380Z,99610.41
2023-05-21T03:01:21.402Z,99615.41
2023-05-21T03:04:23.269Z,99617.22
2023-05-21T03:07:25.109Z,99621.94
2023-05-21T03:10:26.945Z,99613.78
2023-05-21T03:13:29.309Z,99615.75
2023-05-21T03:16:34.639Z,99614.47
2023-05-21T03:19:36.747Z,99611.31
2023-05-21T03:22:39.973Z,99612.91
2023-05-21T03:25:42.751Z,99617.41
2023-05-21T03:28:44.620Z,99621.22
2023-05-21T03:31:46.797Z,99623.47
2023-05-21T03:34:49.603Z,99623.19
2023-05-21T03:37:53.454Z,99622.16
2023-05-21T03:40:55.424Z,99621.38
2023-05-21T03:43:57.660Z,99619.78
2023-05-21T03:47:03.857Z,99629.44
2023-05-21T03:50:10.630Z,99623.53
2023-05-21T03:53:12.619Z,99622.00
2023-05-21T03:56:14.947Z,99624.59
2023-05-21T03:59:17.115Z,99626.75
2023-05-21T04:02:21.355Z,99629.59
2023-05-21T04:05:23.191Z,99627.22
2023-05-21T04:08:25.321Z,99615.56
2023-05-21T04:11:27.358Z,99611.56
2023-05-21T04:14:29.169Z,99612.06
2023-05-21T04:17:31.137Z,99612.19
2023-05-21T04:20:33.080Z,99620.16
2023-05-21T04:23:36.823Z,99611.88
2023-05-21T04:26:44.687Z,99608.78
2023-05-21T04:29:50.634Z,99609.66
2023-05-21T04:32:52.973Z,99611.66
2023-05-21T04:35:55.525Z,99610.97
2023-05-21T04:38:57.521Z,99609.59
2023-05-21T04:41:59.426Z,99612.09
2023-05-21T04:45:01.972Z,99607.97
2023-05-21T04:48:05.742Z,99604.47
2023-05-21T04:51:07.665Z,99604.69
2023-05-21T04:54:09.708Z,99609.91
2023-05-21T04:57:11.805Z,99623.25
2023-05-21T05:00:13.993Z,99622.44
2023-05-21T05:03:18.406Z,99616.59
2023-05-21T05:06:21.492Z,99613.44
2023-05-21T05:09:25.303Z,99618.22
2023-05-21T05:12:28.004Z,99609.84
2023-05-21T05:15:30.342Z,99612.59
2023-05-21T05:18:34.129Z,99613.81
2023-05-21T05:21:36.399Z,99617.78
2023-05-21T05:24:39.579Z,99620.91
2023-05-21T05:27:41.476Z,99629.75
2023-05-21T05:30:43.621Z,99628.53
2023-05-21T05:33:53.056Z,99622.88
2023-05-21T05:36:57.334Z,99619.00
2023-05-21T05:39:59.494Z,99619.63
2023-05-21T05:43:02.423Z,99624.41
2023-05-21T05:46:04.480Z,99618.94
2023-05-21T05:49:06.443Z,99623.03
2023-05-21T05:52:08.336Z,99621.00
2023-05-21T05:55:12.288Z,99618.88
2023-05-21T05:58:14.341Z,99620.50
2023-05-21T06:01:32.154Z,99625.31
2023-05-21T06:04:34.058Z,99621.34
2023-05-21T06:07:38.687Z,99630.06
2023-05-21T06:10:40.446Z,99624.22
2023-05-21T06:13:42.400Z,99622.81
2023-05-21T06:16:45.028Z,99625.66
2023-05-21T06:19:47.529Z,99627.44
2023-05-21T06:22:49.598Z,99622.69
2023-05-21T06:25:51.470Z,99618.75
2023-05-21T06:28:54.589Z,99609.81
2023-05-21T06:31:56.467Z,99616.28
2023-05-21T06:34:58.251Z,99612.50
2023-05-21T06:38:00.181Z,99611.41
2023-05-21T06:41:04.096Z,99603.97
2023-05-21T06:44:21.392Z,99615.13
2023-05-21T06:47:42.030Z,99604.66
2023-05-21T06:50:44.051Z,99604.84
2023-05-21T06:53:46.140Z,99602.34
2023-05-21T06:56:48.481Z,99589.19
2023-05-21T06:59:50.993Z,99600.28
2023-05-21T07:02:53.116Z,99596.25
2023-05-21T07:05:55.280Z,99593.03
2023-05-21T07:08:57.126Z,99590.47
2023-05-21T07:11:59.113Z,99602.28
2023-05-21T07:15:01.250Z,99586.22
2023-05-21T07:18:04.236Z,99590.09
2023-05-21T07:21:06.225Z,99588.81
2023-05-21T07:24:08.087Z,99588.38
2023-05-21T07:27:24.644Z,99588.75
2023-05-21T07:30:28.805Z,99579.84
2023-05-21T07:33:30.868Z,99577.19
2023-05-21T07:36:33.793Z,99577.53
2023-05-21T07:39:37.981Z,99578.19
2023-05-21T07:42:40.954Z,99577.03
2023-05-21T07:45:45.978Z,99570.00
2023-05-21T07:48:48.538Z,99563.69
2023-05-21T07:51:50.685Z,99573.09
2023-05-21T07:54:52.660Z,99581.38
2023-05-21T07:57:57.611Z,99588.53
2023-05-21T08:01:03.620Z,99580.25
2023-05-21T08:04:07.236Z,99578.66
2023-05-21T08:07:12.902Z,99580.47
2023-05-21T08:10:16.134Z,99581.09
2023-05-21T08:13:19.512Z,99594.22
2023-05-21T08:16:23.638Z,99588.41
2023-05-21T08:19:25.924Z,99585.50
2023-05-21T08:22:27.816Z,99590.25
2023-05-21T08:25:30.369Z,99588.03
2023-05-21T08:28:35.644Z,99581.72
2023-05-21T08:31:37.494Z,99593.47
2023-05-21T08:34:39.520Z,99580.75
2023-05-21T08:38:01.526Z,99579.50
2023-05-21T08:41:31.060Z,99585.09
2023-05-21T08:44:34.005Z,99583.19
2023-05-21T08:47:37.161Z,99588.63
2023-05-21T08:50:41.381Z,99583.59
2023-05-21T08:53:50.623Z,99589.75
2023-05-21T08:56:55.525Z,99582.59
2023-05-21T08:59:58.271Z,99588.47
2023-05-21T09:03:07.544Z,99593.53
2023-05-21T09:06:16.429Z,99592.22
2023-05-21T09:09:32.453Z,99585.75
2023-05-21T09:12:35.513Z,99582.81
2023-05-21T09:15:37.970Z,99600.19
2023-05-21T09:18:41.325Z,99602.31
2023-05-21T09:21:53.368Z,99590.31
2023-05-21T09:24:58.115Z,99604.22
2023-05-21T09:28:00.176Z,99604.00
2023-05-21T09:31:03.549Z,99595.44
2023-05-21T09:34:05.477Z,99603.50
2023-05-21T09:37:16.459Z,99601.00
2023-05-21T09:40:26.705Z,99607.69
2023-05-21T09:43:28.945Z,99607.34
2023-05-21T09:46:41.434Z,99622.09
2023-05-21T09:49:44.309Z,99620.84
2023-05-21T09:52:46.536Z,99609.91
2023-05-21T09:55:53.449Z,99624.28
2023-05-21T09:58:57.073Z,99616.94
2023-05-21T10:01:59.934Z,99617.56
2023-05-21T10:05:05.469Z,99618.66
2023-05-21T10:08:12.224Z,99617.94
2023-05-21T10:11:16.957Z,99609.94
2023-05-21T10:14:25.524Z,99617.78
2023-05-21T10:17:29.719Z,99615.06
2023-05-21T10:20:32.015Z,99607.78
2023-05-21T10:23:36.836Z,99619.28
2023-05-21T10:26:41.412Z,99608.22
2023-05-21T10:29:44.589Z,99617.22
2023-05-21T10:32:48.248Z,99613.34
2023-05-21T10:35:53.087Z,99610.00
2023-05-21T10:38:57.094Z,99611.06
2023-05-21T10:42:17.603Z,99611.50
2023-05-21T10:46:05.646Z,99608.09
2023-05-21T10:49:16.719Z,99617.63
2023-05-21T10:52:50.547Z,99610.34
2023-05-21T10:56:04.454Z,99610.81
2023-05-21T10:59:35.994Z,99604.38
2023-05-21T11:02:38.621Z,99603.34
2023-05-21T11:05:50.860Z,99601.94
2023-05-21T11:08:55.301Z,99612.84
2023-05-21T11:11:59.172Z,99596.78
2023-05-21T11:15:01.198Z,99607.47
2023-05-21T11:18:03.158Z,99613.09
2023-05-21T11:21:06.347Z,99601.03
2023-05-21T11:24:08.828Z,99608.53
2023-05-21T11:27:12.468Z,99601.41
2023-05-21T11:30:19.616Z,99605.16
2023-05-21T11:33:21.536Z,99608.25
2023-05-21T11:36:23.336Z,99605.31
2023-05-21T11:39:25.558Z,99602.53
2023-05-21T11:42:42.729Z,99608.97
2023-05-21T11:45:50.560Z,99607.00
2023-05-21T11:48:52.775Z,99606.16
2023-05-21T11:51:54.714Z,99604.84
2023-05-21T11:54:58.188Z,99610.53
2023-05-21T11:58:00.911Z,99606.13
2023-05-21T12:01:02.752Z,99605.94
2023-05-21T12:04:05.165Z,99595.69
2023-05-21T12:07:08.444Z,99593.59
2023-05-21T12:10:11.133Z,99597.38
2023-05-21T12:13:14.988Z,99593.84
2023-05-21T12:16:16.889Z,99591.59
2023-05-21T12:19:19.228Z,99588.78
2023-05-21T12:22:21.801Z,99587.53
2023-05-21T12:25:23.583Z,99583.81
2023-05-21T12:28:25.680Z,99583.63
2023-05-21T12:31:30.975Z,99577.59
2023-05-21T12:34:40.806Z,99566.75
2023-05-21T12:37:43.447Z,99570.31
2023-05-21T12:40:45.868Z,99564.28
2023-05-21T12:43:48.067Z,99566.38
2023-05-21T12:46:49.968Z,99569.91
2023-05-21T12:49:55.913Z,99563.41
2023-05-21T12:52:58.492Z,99548.19
2023-05-21T12:56:10.266Z,99548.00
2023-05-21T12:59:17.644Z,99543.41
2023-05-21T13:02:23.085Z,99545.69
2023-05-21T13:05:24.925Z,99545.03
2023-05-21T13:08:27.262Z,99542.13
2023-05-21T13:11:30.259Z,99546.69
2023-05-21T13:14:32.350Z,99549.41
2023-05-21T13:17:34.977Z,99538.94
2023-05-21T13:20:37.172Z,99546.47
2023-05-21T13:23:39.212Z,99540.06
2023-05-21T13:26:41.511Z,99541.75
2023-05-21T13:29:43.410Z,99531.09
2023-05-21T13:32:45.901Z,99528.78
2023-05-21T13:35:51.239Z,99523.34
2023-05-21T13:38:53.188Z,99517.06
2023-05-21T13:41:55.155Z,99519.53
2023-05-21T13:44:57.049Z,99508.06
2023-05-21T13:47:58.998Z,99509.88
2023-05-21T13:51:00.883Z,99502.75
2023-05-21T13:54:02.848Z,99502.38
2023-05-21T13:57:04.773Z,99499.84
2023-05-21T14:00:09.318Z,99504.41
2023-05-21T14:03:12.289Z,99503.56
2023-05-21T14:06:14.236Z,99506.06
2023-05-21T14:09:16.316Z,99501.84
2023-05-21T14:12:19.005Z,99500.41
2023-05-21T14:15:21.285Z,99496.41
2023-05-21T14:18:23.098Z,99505.63
2023-05-21T14:21:25.986Z,99503.53
2023-05-21T14:24:27.956Z,99505.34
2023-05-21T14:27:29.799Z,99512.22
2023-05-21T14:30:31.700Z,99515.72
2023-05-21T14:33:35.418Z,99526.13
2023-05-21T14:36:37.329Z,99520.66
2023-05-21T14:39:39.127Z,99518.97
2023-05-21T14:42:41.014Z,99518.13
2023-05-21T14:45:42.926Z,99518.72
2023-05-21T14:48:46.806Z,99524.78
2023-05-21T14:51:48.781Z,99528.50
2023-05-21T14:54:50.703Z,99522.06
2023-05-21T14:57:52.501Z,99522.03
2023-05-21T15:00:54.388Z,99526.81
2023-05-21T15:03:58.577Z,99523.25
2023-05-21T15:07:00.693Z,99524.47
2023-05-21T15:10:02.546Z,99520.88
2023-05-21T15:13:04.451Z,99527.34
2023-05-21T15:16:06.565Z,99536.31
2023-05-21T15:19:08.539Z,99538.66
2023-05-21T15:22:10.521Z,99526.50
2023-05-21T15:25:12.408Z,99528.00
2023-05-21T15:28:14.301Z,99512.28
2023-05-21T15:31:16.213Z,99516.06
2023-05-21T15:34:18.205Z,99510.88
2023-05-21T15:37:20.238Z,99504.56
2023-05-21T15:40:22.666Z,99514.00
2023-05-21T15:43:25.977Z,99514.00
2023-05-21T15:46:27.795Z,99521.09
2023-05-21T15:49:29.769Z,99520.50
2023-05-21T15:52:31.612Z,99525.50
2023-05-21T15:55:33.850Z,99527.16
2023-05-21T15:58:35.768Z,99533.03
2023-05-21T16:01:37.884Z,99542.84
2023-05-21T16:04:39.856Z,99546.00
2023-05-21T16:07:41.797Z,99542.28
2023-05-21T16:10:46.130Z,99546.28
2023-05-21T16:13:48.099Z,99540.44
2023-05-21T16:16:49.914Z,99533.16
2023-05-21T16:19:51.887Z,99533.59
2023-05-21T16:22:53.737Z,99534.03
2023-05-21T16:25:55.893Z,99541.56
2023-05-21T16:28:58.878Z,99539.06
2023-05-21T16:32:01.024Z,99534.50
2023-05-21T16:35:03.377Z,99529.50
2023-05-21T16:38:05.410Z,99526.38
2023-05-21T16:41:07.355Z,99530.19
2023-05-21T16:44:09.330Z,99529.16
2023-05-21T16:47:11.371Z,99524.38
2023-05-21T16:50:13.428Z,99528.56
2023-05-21T16:53:16.354Z,99522.97
2023-05-21T16:56:18.526Z,99525.47
2023-05-21T16:59:20.588Z,99529.84
2023-05-21T17:02:22.988Z,99526.53
2023-05-21T17:05:26.475Z,99519.66
2023-05-21T17:08:29.921Z,99520.94
2023-05-21T17:11:31.974Z,99521.78
2023-05-21T17:14:36.244Z,99521.38
2023-05-21T17:17:39.367Z,99521.78
2023-05-21T17:20:43.805Z,99515.75
2023-05-21T17:23:45.873Z,99517.22
2023-05-21T17:26:47.741Z,99518.06
2023-05-21T17:29:49.652Z,99528.06
2023-05-21T17:32:51.530Z,99533.94
2023-05-21T17:35:53.751Z,99527.88
2023-05-21T17:38:55.656Z,99521.22
2023-05-21T17:41:57.516Z,99531.88
2023-05-21T17:44:59.475Z,99526.03
2023-05-21T17:48:01.440Z,99527.28
2023-05-21T17:51:03.499Z,99532.09
2023-05-21T17:54:06.001Z,99521.47
2023-05-21T17:57:07.801Z,99526.47
2023-05-21T18:00:10.309Z,99526.03
2023-05-21T18:03:15.028Z,99520.59
2023-05-21T18:06:17.023Z,99522.25
2023-05-21T18:09:19.255Z,99511.81
2023-05-21T18:12:22.208Z,99524.13
2023-05-21T18:15:25.102Z,99519.53
2023-05-21T18:18:27.116Z,99511.81
2023-05-21T18:21:29.051Z,99519.72
2023-05-21T18:24:30.953Z,99517.66
2023-05-21T18:27:32.820Z,99508.25
2023-05-21T18:30:35.202Z,99515.56
2023-05-21T18:33:38.365Z,99515.34
2023-05-21T18:36:40.284Z,99514.91
2023-05-21T18:39:42.147Z,99513.03
2023-05-21T18:42:44.006Z,99498.22
2023-05-21T18:45:46.934Z,99497.16
2023-05-21T18:48:48.891Z,99494.88
2023-05-21T18:51:50.837Z,99493.59
2023-05-21T18:54:52.733Z,99484.84
2023-05-21T18:57:55.549Z,99482.94
2023-05-21T19:00:57.952Z,99475.00
2023-05-21T19:03:59.817Z,99474.53
2023-05-21T19:07:03.072Z,99467.00
2023-05-21T19:10:05.217Z,99461.97
2023-05-21T19:13:07.184Z,99449.50
2023-05-21T19:16:11.469Z,99454.91
2023-05-21T19:19:13.462Z,99453.22
2023-05-21T19:22:19.762Z,99462.38
2023-05-21T19:25:21.928Z,99457.38
2023-05-21T19:28:23.801Z,99455.91
2023-05-21T19:31:25.796Z,99449.44
2023-05-21T19:34:27.765Z,99452.75
2023-05-21T19:37:29.639Z,99451.47
2023-05-21T19:40:31.414Z,99454.38
2023-05-21T19:43:33.246Z,99445.00
2023-05-21T19:46:35.041Z,99436.06
2023-05-21T19:49:38.426Z,99439.16
2023-05-21T19:52:41.302Z,99431.66
2023-05-21T19:55:44.676Z,99430.19
2023-05-21T19:58:48.052Z,99425.38
2023-05-21T20:01:50.050Z,99427.03
2023-05-21T20:04:53.525Z,99423.91
2023-05-21T20:07:55.945Z,99442.59
2023-05-21T20:10:57.885Z,99445.25
2023-05-21T20:13:59.940Z,99445.00
2023-05-21T20:17:02.009Z,99449.53
2023-05-21T20:20:11.180Z,99441.97
2023-05-21T20:23:13.786Z,99438.66
2023-05-21T20:26:16.171Z,99438.00
2023-05-21T20:29:18.040Z,99434.47
2023-05-21T20:32:19.951Z,99435.31
2023-05-21T20:35:21.922Z,99432.22
2023-05-21T20:38:25.872Z,99434.91
2023-05-21T20:41:35.842Z,99435.75
2023-05-21T20:44:37.761Z,99431.19
2023-05-21T20:47:39.680Z,99427.84
2023-05-21T20:50:44.353Z,99428.47
2023-05-21T20:53:47.062Z,99422.03
2023-05-21T20:56:50.772Z,99421.19
2023-05-21T20:59:53.376Z,99424.09
2023-05-21T21:02:55.746Z,99426.16
2023-05-21T21:05:59.638Z,99418.47
2023-05-21T21:09:01.474Z,99415.31
2023-05-21T21:12:14.419Z,99409.47
2023-05-21T21:15:26.384Z,99401.81
2023-05-21T21:18:28.242Z,99399.94
2023-05-21T21:21:30.147Z,99398.94
2023-05-21T21:24:32.047Z,99402.28
2023-05-21T21:27:33.916Z,99400.81
2023-05-21T21:30:35.773Z,99397.28
2023-05-21T21:33:37.651Z,99401.66
2023-05-21T21:36:39.890Z,99405.19
2023-05-21T21:39:41.756Z,99407.88
2023-05-21T21:42:43.718Z,99414.94
2023-05-21T21:45:45.615Z,99417.84
2023-05-21T21:48:48.563Z,99427.97
2023-05-21T21:51:51.315Z,99422.78
2023-05-21T21:54:54.420Z,99417.38
2023-05-21T21:57:57.039Z,99406.38
2023-05-21T22:00:58.994Z,99402.00
2023-05-21T22:04:00.881Z,99399.78
2023-05-21T22:07:02.875Z,99407.69
2023-05-21T22:10:06.134Z,99410.16
2023-05-21T22:13:08.087Z,99411.22
2023-05-21T22:16:11.911Z,99410.38
2023-05-21T22:19:16.069Z,99410.97
2023-05-21T22:22:17.950Z,99417.44
2023-05-21T22:25:19.826Z,99421.19
2023-05-21T22:28:22.528Z,99421.19
2023-05-21T22:31:24.483Z,99419.31
2023-05-21T22:34:26.345Z,99427.44
2023-05-21T22:37:28.470Z,99429.06
2023-05-21T22:40:30.413Z,99429.91
2023-05-21T22:43:34.602Z,99423.06
2023-05-21T22:46:36.559Z,99424.53
2023-05-21T22:49:40.667Z,99421.19
2023-05-21T22:52:43.167Z,99416.63
2023-05-21T22:55:45.054Z,99412.06
2023-05-21T22:58:46.928Z,99411.84
2023-05-21T23:01:48.893Z,99405.19
2023-05-21T23:04:50.926Z,99396.63
2023-05-21T23:07:52.945Z,99393.31
2023-05-21T23:10:54.873Z,99391.19
2023-05-21T23:13:56.777Z,99393.00
2023-05-21T23:17:02.043Z,99389.66
2023-05-21T23:20:05.612Z,99384.47
2023-05-21T23:23:07.494Z,99385.25
2023-05-21T23:26:09.346Z,99393.56
2023-05-21T23:29:11.188Z,99380.25
2023-05-21T23:32:13.224Z,99386.88
2023-05-21T23:35:16.496Z,99391.84
2023-05-21T23:38:18.297Z,99386.00
2023-05-21T23:41:20.241Z,99383.50
2023-05-21T23:44:22.072Z,99389.72
2023-05-21T23:47:24.005Z,99377.25
2023-05-21T23:50:25.950Z,99383.09
2023-05-21T23:53:27.776Z,99375.81
2023-05-21T23:56:30.408Z,99371.25
2023-05-21T23:59:32.169Z,99366.88
